Terminal Aerodrome Forecast
Issued by NWS

Home | Current Version | Previous Version | Text Only | Print | Product List | Glossary On
Versions: 1 2 3 4 5 6 7 8 9 10 11 12
667
FTUS44 KTSA 191720
TAFBVO
TAF
KBVO 191720Z 1918/2018 19010KT P6SM BKN250
     FM200000 16003KT P6SM BKN250
     FM201500 17012G20KT P6SM BKN250=

USA.gov is the U.S. government's official web portal to all federal, state and local government web resources and services.